Time;durP1;ratioP1;P1;durP2;ratioP2;P2;SDS_P1;SDS_P2;PMS_P1;PMS_P2;Temp;Humidity;BMP_temperature;BMP_pressure;BME280_temperature;BME280_humidity;BME280_pressure;Samples;Min_cycle;Max_cycle;Signal;HPM_P1;HPM_P2
2022/08/29 00:00:06;;;;;;;10.27;8.55;;;17.70;18.00;;;;;;7363091;19;20010;-68
2022/08/29 00:02:36;;;;;;;10.23;8.13;;;17.60;18.80;;;;;;7381149;19;20014;-68
2022/08/29 00:05:07;;;;;;;11.45;9.18;;;17.60;19.40;;;;;;7364908;19;20021;-68
2022/08/29 00:07:37;;;;;;;9.35;8.18;;;17.60;18.90;;;;;;7364004;19;20522;-68
2022/08/29 00:10:11;;;;;;;10.63;8.55;;;17.60;19.10;;;;;;7363049;19;20027;-69
2022/08/29 00:12:41;;;;;;;10.17;8.00;;;17.50;19.10;;;;;;7360660;19;20006;-68
2022/08/29 00:15:13;;;;;;;10.70;8.45;;;17.50;18.90;;;;;;7365308;19;20524;-68
2022/08/29 00:17:43;;;;;;;11.68;8.43;;;17.50;18.20;;;;;;7385366;19;20014;-68
2022/08/29 00:20:18;;;;;;;12.32;8.40;;;17.50;17.50;;;;;;7361230;19;20106;-68
2022/08/29 00:22:48;;;;;;;12.93;9.80;;;17.50;18.30;;;;;;7361547;19;20021;-68
2022/08/29 00:25:20;;;;;;;9.82;8.63;;;17.50;20.10;;;;;;7365991;19;20086;-68
2022/08/29 00:27:51;;;;;;;15.95;8.55;;;17.50;20.10;;;;;;7364140;19;20014;-68
2022/08/29 00:30:22;;;;;;;9.95;8.30;;;17.50;20.30;;;;;;7359259;19;20007;-69
2022/08/29 00:32:53;;;;;;;10.82;8.65;;;17.30;20.00;;;;;;7362053;19;20021;-69
2022/08/29 00:35:25;;;;;;;12.55;8.73;;;17.40;20.10;;;;;;7386687;19;20040;-68
2022/08/29 00:37:56;;;;;;;10.52;8.43;;;17.30;20.10;;;;;;7364004;19;20697;-68
2022/08/29 00:40:31;;;;;;;10.68;9.00;;;17.30;21.30;;;;;;7357457;19;20494;-68
2022/08/29 00:43:04;;;;;;;12.18;8.93;;;17.30;20.50;;;;;;7362423;19;20572;-66
2022/08/29 00:45:35;;;;;;;13.38;8.90;;;17.20;22.00;;;;;;7363804;19;20089;-69
2022/08/29 00:48:09;;;;;;;10.90;8.50;;;17.20;21.70;;;;;;7364313;19;20056;-69
2022/08/29 00:50:42;;;;;;;13.05;8.98;;;17.20;19.90;;;;;;7377446;19;20014;-67
2022/08/29 00:53:15;;;;;;;10.73;8.57;;;17.20;21.50;;;;;;7362868;19;20010;-67
2022/08/29 00:55:49;;;;;;;15.75;8.77;;;17.20;21.40;;;;;;7363044;19;20247;-68
2022/08/29 00:58:24;;;;;;;;;;;17.10;22.20;;;;;;7364639;19;20038;-68
2022/08/29 01:00:55;;;;;;;11.07;8.25;;;17.10;23.40;;;;;;7354646;19;19978;-68
2022/08/29 01:03:25;;;;;;;11.80;8.07;;;17.00;22.10;;;;;;7362834;19;20007;-68
2022/08/29 01:05:56;;;;;;;13.23;8.70;;;17.10;21.90;;;;;;7363412;19;20462;-68
2022/08/29 01:08:25;;;;;;;13.13;8.50;;;17.00;22.80;;;;;;7383845;19;20093;-68
2022/08/29 01:13:44;;;;;;;10.65;8.55;;;17.00;22.50;;;;;;7362711;19;20010;-68
2022/08/29 01:16:16;;;;;;;9.77;8.05;;;16.90;23.10;;;;;;7369218;19;20608;-68
2022/08/29 01:18:48;;;;;;;10.60;8.50;;;16.90;23.30;;;;;;7371083;19;20006;-68
2022/08/29 01:21:25;;;;;;;13.45;8.43;;;16.90;23.30;;;;;;7361428;19;20018;-68
2022/08/29 01:24:03;;;;;;;16.02;9.20;;;16.90;23.30;;;;;;7368876;19;20026;-68
2022/08/29 01:26:35;;;;;;;13.05;8.88;;;16.90;23.30;;;;;;7390737;19;20090;-68
2022/08/29 01:29:06;;;;;;;11.52;8.73;;;16.80;23.40;;;;;;7369897;19;20385;-68
2022/08/29 01:31:42;;;;;;;13.57;9.55;;;16.80;23.80;;;;;;7360571;19;20089;-68
2022/08/29 01:34:28;;;;;;;13.65;9.00;;;16.70;24.50;;;;;;7369365;19;20111;-68
2022/08/29 01:37:00;;;;;;;10.30;8.75;;;16.70;24.50;;;;;;7369541;19;20007;-68
2022/08/29 01:39:32;;;;;;;12.30;8.73;;;16.60;25.00;;;;;;7370374;19;20006;-68
2022/08/29 01:42:09;;;;;;;9.45;7.88;;;16.60;26.40;;;;;;7361240;19;20051;-68
2022/08/29 01:44:40;;;;;;;10.13;8.27;;;16.50;25.00;;;;;;7388957;19;20014;-68
2022/08/29 01:47:10;;;;;;;12.85;7.70;;;16.60;25.00;;;;;;7367993;19;20123;-68
2022/08/29 01:49:43;;;;;;;10.05;8.05;;;16.60;24.70;;;;;;7369193;19;20017;-69
2022/08/29 01:52:14;;;;;;;11.57;7.63;;;16.50;24.70;;;;;;7360680;19;20019;-68
2022/08/29 01:54:46;;;;;;;10.82;8.02;;;16.50;24.70;;;;;;7369546;19;20067;-69
2022/08/29 01:57:19;;;;;;;9.50;7.35;;;16.50;24.20;;;;;;7367904;19;20014;-68
2022/08/29 01:59:49;;;;;;;9.32;7.07;;;16.60;24.30;;;;;;7370417;19;20117;-68
2022/08/29 02:02:22;;;;;;;9.55;7.97;;;16.50;24.10;;;;;;7381633;19;20015;-68
2022/08/29 02:04:52;;;;;;;10.20;7.10;;;16.50;23.60;;;;;;7365934;19;20062;-68
2022/08/29 02:07:24;;;;;;;8.65;7.22;;;16.50;23.10;;;;;;7368302;19;20101;-69
2022/08/29 02:09:54;;;;;;;8.93;7.30;;;16.50;23.00;;;;;;7369276;19;20017;-68
2022/08/29 02:12:28;;;;;;;8.48;7.00;;;16.50;21.50;;;;;;7361264;19;20027;-68
2022/08/29 02:14:58;;;;;;;11.10;7.05;;;16.40;23.70;;;;;;7367567;19;20020;-68
2022/08/29 02:17:28;;;;;;;13.18;7.75;;;16.30;22.30;;;;;;7387968;19;20018;-68
2022/08/29 02:19:58;;;;;;;10.57;7.55;;;16.30;22.60;;;;;;7369230;19;20020;-68
2022/08/29 02:22:28;;;;;;;12.57;7.45;;;16.20;22.50;;;;;;7360132;19;20514;-68
2022/08/29 02:25:00;;;;;;;10.43;6.93;;;16.20;22.10;;;;;;7367843;19;20486;-68
2022/08/29 02:27:33;;;;;;;8.15;6.70;;;16.20;23.00;;;;;;7365367;19;20011;-68
2022/08/29 02:30:07;;;;;;;12.98;7.05;;;16.30;22.90;;;;;;7367370;19;20050;-68
2022/08/29 02:32:37;;;;;;;10.00;6.85;;;16.20;21.70;;;;;;7384063;19;20104;-68
2022/08/29 02:35:07;;;;;;;9.70;7.32;;;16.20;21.80;;;;;;7367529;19;20007;-68
2022/08/29 02:37:39;;;;;;;10.10;6.72;;;16.20;19.80;;;;;;7367077;19;20024;-68
2022/08/29 02:40:10;;;;;;;9.18;7.03;;;16.20;20.50;;;;;;7365932;19;20017;-68
2022/08/29 02:42:43;;;;;;;9.25;6.93;;;16.10;21.80;;;;;;7363421;19;20093;-68
2022/08/29 02:45:13;;;;;;;11.07;6.95;;;16.00;22.80;;;;;;7367270;19;20014;-68
2022/08/29 02:47:43;;;;;;;9.35;6.40;;;16.00;22.70;;;;;;7387743;19;20111;-68
2022/08/29 02:50:14;;;;;;;11.55;6.68;;;16.00;21.90;;;;;;7364175;19;20021;-68
2022/08/29 02:52:45;;;;;;;10.43;6.65;;;16.10;22.80;;;;;;7363189;19;20011;-68
2022/08/29 02:55:18;;;;;;;8.00;7.18;;;16.10;21.90;;;;;;7367926;19;20066;-68
2022/08/29 02:57:51;;;;;;;10.52;6.72;;;16.10;22.20;;;;;;7365694;19;20088;-68
2022/08/29 03:00:24;;;;;;;8.73;6.85;;;15.90;22.70;;;;;;7361522;19;20031;-68
2022/08/29 03:02:55;;;;;;;10.77;7.20;;;15.90;23.00;;;;;;7364756;19;20014;-68
2022/08/29 03:05:27;;;;;;;11.90;6.72;;;15.90;24.60;;;;;;7386973;19;20820;-68
2022/08/29 03:07:58;;;;;;;9.27;6.78;;;15.90;23.80;;;;;;7366494;19;20394;-67
2022/08/29 03:10:28;;;;;;;9.45;6.72;;;15.90;24.60;;;;;;7359249;19;20010;-68
2022/08/29 03:13:01;;;;;;;10.57;7.15;;;15.80;23.90;;;;;;7365612;19;20006;-68
2022/08/29 03:15:31;;;;;;;13.95;6.72;;;15.70;23.80;;;;;;7367097;19;20062;-68
2022/08/29 03:18:01;;;;;;;10.65;7.65;;;15.70;24.60;;;;;;7366470;19;20027;-68
2022/08/29 03:20:31;;;;;;;9.40;6.90;;;15.70;25.00;;;;;;7380659;19;20021;-68
2022/08/29 03:23:01;;;;;;;8.40;6.70;;;15.70;24.00;;;;;;7364557;19;20016;-68
2022/08/29 03:25:31;;;;;;;9.60;6.28;;;15.70;23.80;;;;;;7365448;19;20529;-68
2022/08/29 03:28:04;;;;;;;12.63;7.07;;;15.70;23.40;;;;;;7366024;19;20165;-68
2022/08/29 03:30:34;;;;;;;11.52;7.30;;;15.70;23.90;;;;;;7357983;19;20894;-67
2022/08/29 03:33:05;;;;;;;11.00;6.93;;;15.70;23.50;;;;;;7365009;19;20470;-68
2022/08/29 03:35:40;;;;;;;10.27;6.57;;;15.70;23.60;;;;;;7387128;19;20033;-68
2022/08/29 03:38:10;;;;;;;11.35;7.20;;;15.70;22.50;;;;;;7365892;19;20010;-68
2022/08/29 03:40:42;;;;;;;16.75;7.30;;;15.70;22.40;;;;;;7358263;19;20487;-68
2022/08/29 03:43:15;;;;;;;11.38;7.13;;;15.60;22.40;;;;;;7364414;19;20002;-68
2022/08/29 03:45:46;;;;;;;7.95;6.97;;;15.60;22.40;;;;;;7364402;19;20698;-68
2022/08/29 03:48:17;;;;;;;9.52;7.05;;;15.60;22.40;;;;;;7366025;19;20082;-68
2022/08/29 03:50:46;;;;;;;8.73;6.72;;;15.60;21.80;;;;;;7360543;19;20021;-68
2022/08/29 03:53:16;;;;;;;14.80;7.18;;;15.50;21.60;;;;;;7386300;19;20023;-68
2022/08/29 03:55:48;;;;;;;9.52;6.45;;;15.50;22.10;;;;;;7365197;19;20018;-67
2022/08/29 03:58:21;;;;;;;11.95;7.20;;;15.50;22.50;;;;;;7364388;19;20014;-68
2022/08/29 04:00:51;;;;;;;9.88;6.60;;;15.50;23.20;;;;;;7357455;19;20024;-68
2022/08/29 04:03:22;;;;;;;11.90;6.90;;;15.50;22.70;;;;;;7364075;19;20514;-68
2022/08/29 04:06:00;;;;;;;12.35;6.30;;;15.50;22.40;;;;;;7363901;19;20033;-68
2022/08/29 04:08:29;;;;;;;9.63;7.20;;;15.50;23.70;;;;;;7386683;19;20486;-68
2022/08/29 04:10:59;;;;;;;9.27;6.13;;;15.50;23.50;;;;;;7355804;19;20015;-67
2022/08/29 04:13:32;;;;;;;9.23;6.60;;;15.30;22.80;;;;;;7363184;19;20010;-67
2022/08/29 04:16:02;;;;;;;8.80;6.38;;;15.30;23.40;;;;;;7364564;19;20011;-68
2022/08/29 04:18:31;;;;;;;11.15;6.45;;;15.30;23.70;;;;;;7364927;19;20131;-68
2022/08/29 04:21:04;;;;;;;11.40;6.30;;;15.20;23.60;;;;;;7355847;19;20028;-68
2022/08/29 04:23:35;;;;;;;10.73;6.75;;;15.20;23.90;;;;;;7385827;19;20006;-67
2022/08/29 04:26:05;;;;;;;9.73;6.35;;;15.20;23.20;;;;;;7364157;19;20052;-66
2022/08/29 04:28:57;;;;;;;10.43;5.88;;;15.20;22.10;;;;;;7364604;19;20362;-66
2022/08/29 04:31:27;;;;;;;9.32;6.40;;;15.30;22.90;;;;;;7355491;19;20017;-67
2022/08/29 04:33:57;;;;;;;10.05;6.55;;;15.30;22.20;;;;;;7363680;19;20411;-67
2022/08/29 04:36:27;;;;;;;14.00;7.05;;;15.30;22.30;;;;;;7365045;19;20128;-67
2022/08/29 04:38:57;;;;;;;11.02;6.40;;;15.20;22.30;;;;;;7365455;19;20022;-68
2022/08/29 04:41:27;;;;;;;10.75;6.28;;;15.20;22.70;;;;;;7376548;19;20082;-67
2022/08/29 04:44:00;;;;;;;15.63;6.18;;;15.20;22.90;;;;;;7363332;19;20045;-67
2022/08/29 04:46:29;;;;;;;8.98;6.40;;;15.20;23.50;;;;;;7362531;19;20011;-67
2022/08/29 04:49:00;;;;;;;12.57;6.57;;;15.20;22.80;;;;;;7364960;19;20029;-67
2022/08/29 04:51:34;;;;;;;10.40;6.60;;;15.20;22.10;;;;;;7362012;19;20003;-68
2022/08/29 04:54:05;;;;;;;10.30;5.75;;;15.40;21.90;;;;;;7368849;19;20022;-68
2022/08/29 04:56:36;;;;;;;12.40;6.82;;;15.80;18.50;;;;;;7391230;19;20018;-67
2022/08/29 04:59:12;;;;;;;11.25;5.95;;;16.30;13.40;;;;;;7370679;19;20010;-67
2022/08/29 05:01:42;;;;;;;11.43;6.43;;;16.70;11.50;;;;;;7360478;19;20010;-67
2022/08/29 05:04:12;;;;;;;8.25;5.70;;;17.20;7.40;;;;;;7370351;19;20531;-68
2022/08/29 05:06:43;;;;;;;8.80;5.70;;;17.40;3.70;;;;;;7370064;19;20097;-68
2022/08/29 05:09:13;;;;;;;10.07;5.40;;;17.70;1.50;;;;;;7371992;19;20090;-68
2022/08/29 05:11:44;;;;;;;8.38;5.40;;;17.80;1.00;;;;;;7383023;19;20018;-68
2022/08/29 05:14:16;;;;;;;12.38;5.13;;;18.30;1.00;;;;;;7369621;19;20086;-68
2022/08/29 05:16:47;;;;;;;8.45;4.95;;;18.70;1.00;;;;;;7369002;19;20843;-68
2022/08/29 05:19:17;;;;;;;8.73;4.88;;;18.80;1.00;;;;;;7371391;19;20031;-68
2022/08/29 05:21:46;;;;;;;10.60;4.88;;;19.20;1.00;;;;;;7361139;19;20007;-68
2022/08/29 05:24:18;;;;;;;9.30;4.95;;;19.70;1.00;;;;;;7370592;19;20790;-68
2022/08/29 05:26:47;;;;;;;12.75;5.22;;;20.20;1.00;;;;;;7368450;19;20490;-68
2022/08/29 05:29:20;;;;;;;7.20;4.80;;;19.50;1.00;;;;;;7392799;19;20086;-68
2022/08/29 05:31:50;;;;;;;8.60;4.55;;;19.80;1.00;;;;;;7360678;19;20021;-68
2022/08/29 05:34:20;;;;;;;8.05;4.45;;;20.20;1.00;;;;;;7370023;19;20062;-68
2022/08/29 05:37:05;;;;;;;7.38;4.60;;;20.10;1.00;;;;;;7368710;19;20474;-68
2022/08/29 05:39:37;;;;;;;8.68;4.78;;;18.70;1.00;;;;;;7370198;19;20054;-67
2022/08/29 05:42:08;;;;;;;8.82;4.35;;;17.70;1.00;;;;;;7360314;19;20022;-67
2022/08/29 05:44:41;;;;;;;8.50;4.50;;;17.20;1.00;;;;;;7391508;19;20018;-68
2022/08/29 05:47:14;;;;;;;8.88;4.28;;;17.30;1.00;;;;;;7368108;19;20099;-68
2022/08/29 05:49:46;;;;;;;5.82;4.55;;;16.90;1.00;;;;;;7366331;19;20015;-67
2022/08/29 05:52:18;;;;;;;9.27;5.22;;;16.90;1.00;;;;;;7358689;19;20021;-67
2022/08/29 05:54:48;;;;;;;8.50;4.85;;;16.80;1.00;;;;;;7367325;19;20022;-67
2022/08/29 05:57:21;;;;;;;11.43;5.47;;;16.90;1.00;;;;;;7367189;19;20082;-67
2022/08/29 05:59:56;;;;;;;9.13;5.13;;;17.00;1.00;;;;;;7368413;19;20018;-68
2022/08/29 06:02:26;;;;;;;11.02;4.93;;;16.90;1.00;;;;;;7382728;19;20010;-67
2022/08/29 06:04:57;;;;;;;9.45;5.13;;;17.10;1.00;;;;;;7366872;19;20031;-67
2022/08/29 06:07:27;;;;;;;8.80;5.20;;;17.20;1.00;;;;;;7366677;19;20018;-67
2022/08/29 06:09:57;;;;;;;9.98;5.50;;;17.20;1.00;;;;;;7369035;19;20526;-68
2022/08/29 06:12:32;;;;;;;8.27;4.78;;;17.40;1.00;;;;;;7361422;19;20011;-68
2022/08/29 06:15:05;;;;;;;12.30;5.38;;;17.30;1.00;;;;;;7367843;19;20010;-68
2022/08/29 06:17:36;;;;;;;7.95;5.22;;;17.20;1.00;;;;;;7388228;19;20011;-68
2022/08/29 06:20:09;;;;;;;12.68;5.55;;;17.20;1.00;;;;;;7366345;19;20018;-67
2022/08/29 06:22:40;;;;;;;8.27;5.63;;;17.40;1.00;;;;;;7360257;19;20010;-67
2022/08/29 06:25:11;;;;;;;9.90;5.43;;;17.30;1.00;;;;;;7365444;19;20068;-67
2022/08/29 06:28:01;;;;;;;8.68;4.85;;;17.60;1.00;;;;;;7367141;19;20015;-67
2022/08/29 06:30:35;;;;;;;9.85;5.05;;;17.60;1.00;;;;;;7361101;19;20470;-68
2022/08/29 06:33:05;;;;;;;8.48;5.90;;;17.50;1.00;;;;;;7363961;19;20019;-68
2022/08/29 06:35:35;;;;;;;11.88;5.18;;;17.60;1.00;;;;;;7387589;19;20279;-68
2022/08/29 06:38:05;;;;;;;8.00;5.00;;;17.70;1.00;;;;;;7365437;19;20007;-68
2022/08/29 06:40:45;;;;;;;9.40;4.97;;;17.70;1.00;;;;;;7358545;19;20538;-71
2022/08/29 06:43:15;;;;;;;8.57;5.30;;;17.70;1.00;;;;;;7364259;19;20031;-67
2022/08/29 06:45:48;;;;;;;6.97;4.60;;;17.80;1.00;;;;;;7364549;19;20597;-67
2022/08/29 06:48:18;;;;;;;15.10;4.90;;;18.10;1.00;;;;;;7363734;19;20006;-68
2022/08/29 06:50:47;;;;;;;9.05;5.35;;;18.00;1.00;;;;;;7358129;19;20024;-68
2022/08/29 06:53:17;;;;;;;7.78;4.53;;;18.10;1.00;;;;;;7383524;19;20014;-67
2022/08/29 06:56:06;;;;;;;8.85;4.60;;;18.20;1.00;;;;;;7366035;19;20078;-68
2022/08/29 06:58:40;;;;;;;8.98;5.00;;;18.50;1.00;;;;;;7365024;19;20014;-67
2022/08/29 07:01:15;;;;;;;8.05;5.13;;;18.60;1.00;;;;;;7358771;19;20200;-67
2022/08/29 07:03:45;;;;;;;7.55;4.80;;;18.60;1.00;;;;;;7365383;19;20014;-68
2022/08/29 07:06:15;;;;;;;11.25;4.72;;;18.60;1.00;;;;;;7365744;19;20018;-68
2022/08/29 07:08:45;;;;;;;10.55;5.13;;;18.60;1.00;;;;;;7387066;19;20019;-68
2022/08/29 07:11:24;;;;;;;14.38;5.25;;;18.80;1.00;;;;;;7356164;19;20408;-68
2022/08/29 07:13:57;;;;;;;8.93;4.72;;;18.90;1.00;;;;;;7363958;19;20010;-67
2022/08/29 07:16:30;;;;;;;12.52;5.75;;;18.80;1.00;;;;;;7365935;19;20011;-67
2022/08/29 07:19:00;;;;;;;8.67;4.77;;;18.70;1.00;;;;;;7367369;19;20066;-69
2022/08/29 07:21:30;;;;;;;9.50;4.93;;;18.80;1.00;;;;;;7357574;19;20517;-67
2022/08/29 07:24:00;;;;;;;10.13;4.95;;;19.00;1.00;;;;;;7365134;19;20512;-68
2022/08/29 07:26:35;;;;;;;8.18;4.80;;;19.20;1.00;;;;;;7386568;19;20094;-68
2022/08/29 07:29:06;;;;;;;;;;;19.10;1.00;;;;;;7367083;19;20010;-67
2022/08/29 07:31:39;;;;;;;6.55;4.43;;;19.00;1.00;;;;;;7355301;19;20005;-67
2022/08/29 07:34:10;;;;;;;9.57;4.70;;;18.90;1.00;;;;;;7364633;19;20044;-68
2022/08/29 07:36:40;;;;;;;7.80;4.80;;;19.00;1.00;;;;;;7365107;19;20010;-68
2022/08/29 07:39:12;;;;;;;8.20;4.35;;;19.30;1.00;;;;;;7365154;19;20358;-68
2022/08/29 07:41:43;;;;;;;8.43;5.30;;;19.40;1.00;;;;;;7378253;19;20039;-68
2022/08/29 07:44:14;;;;;;;11.25;4.97;;;19.30;1.00;;;;;;7363496;19;20007;-68
2022/08/29 07:46:47;;;;;;;6.32;4.72;;;19.60;1.00;;;;;;7363442;19;20036;-67
2022/08/29 07:49:17;;;;;;;7.72;4.57;;;19.70;1.00;;;;;;7366357;19;20085;-67
2022/08/29 07:51:48;;;;;;;9.90;4.97;;;19.80;1.00;;;;;;7355237;19;20007;-67
2022/08/29 07:54:18;;;;;;;11.38;4.90;;;19.70;1.00;;;;;;7363604;19;20053;-69
2022/08/29 07:56:50;;;;;;;9.68;5.22;;;19.80;1.00;;;;;;7364245;19;20414;-69
2022/08/29 07:59:21;;;;;;;8.35;5.55;;;19.80;1.00;;;;;;7387328;19;20114;-68
2022/08/29 08:01:53;;;;;;;8.13;5.45;;;19.70;1.00;;;;;;7354837;19;20014;-68
2022/08/29 08:04:23;;;;;;;9.35;4.97;;;19.80;1.00;;;;;;7363986;19;20038;-68
2022/08/29 08:06:54;;;;;;;8.77;5.30;;;19.50;1.00;;;;;;7364100;19;20010;-68
2022/08/29 08:09:24;;;;;;;9.80;5.25;;;19.90;1.00;;;;;;7366049;19;20011;-68
2022/08/29 08:11:56;;;;;;;12.35;5.82;;;20.30;1.00;;;;;;7356801;19;20077;-68
2022/08/29 08:14:27;;;;;;;18.42;5.80;;;20.00;1.00;;;;;;7385960;19;20466;-68
2022/08/29 08:17:06;;;;;;;9.82;5.70;;;20.50;1.00;;;;;;7362227;19;20011;-67
2022/08/29 08:19:36;;;;;;;10.68;5.72;;;20.30;1.00;;;;;;7364645;19;20110;-67
2022/08/29 08:22:06;;;;;;;10.65;5.68;;;20.20;1.00;;;;;;7353106;19;20085;-67
2022/08/29 08:24:36;;;;;;;8.15;5.63;;;20.60;1.00;;;;;;7364695;19;20011;-69
2022/08/29 08:27:06;;;;;;;9.18;5.55;;;20.80;1.00;;;;;;7367503;19;20103;-68
2022/08/29 08:29:36;;;;;;;7.90;5.28;;;20.70;1.00;;;;;;7393335;19;20026;-67
2022/08/29 08:32:09;;;;;;;14.52;6.30;;;20.90;1.00;;;;;;7360611;19;20015;-68
2022/08/29 08:34:39;;;;;;;10.70;5.88;;;21.10;1.00;;;;;;7371560;19;20023;-68
2022/08/29 08:37:09;;;;;;;8.45;5.32;;;20.80;1.00;;;;;;7371185;19;20027;-68
2022/08/29 08:39:40;;;;;;;9.63;5.90;;;20.90;1.00;;;;;;7367532;19;20014;-68
2022/08/29 08:42:18;;;;;;;10.63;5.55;;;21.20;1.00;;;;;;7362334;19;20006;-68
2022/08/29 08:45:09;;;;;;;8.80;5.72;;;21.40;1.00;;;;;;7370107;19;20406;-68
2022/08/29 08:47:44;;;;;;;10.52;5.50;;;21.70;1.00;;;;;;7387541;19;20121;-67
2022/08/29 08:50:21;;;;;;;8.68;6.05;;;21.90;1.00;;;;;;7366420;19;20014;-68
2022/08/29 08:52:57;;;;;;;8.93;5.95;;;21.70;1.00;;;;;;7365515;19;20512;-69
2022/08/29 08:55:34;;;;;;;10.75;5.95;;;22.00;1.00;;;;;;7369061;19;20023;-69
2022/08/29 08:58:13;;;;;;;12.10;6.18;;;22.00;1.00;;;;;;7370115;19;20015;-67
2022/08/29 09:00:48;;;;;;;9.55;6.13;;;22.10;1.00;;;;;;7363072;19;20014;-68
2022/08/29 09:03:38;;;;;;;8.20;6.10;;;21.90;1.00;;;;;;7366922;19;20006;-68
2022/08/29 09:06:14;;;;;;;8.95;5.90;;;22.30;1.00;;;;;;7369345;19;20023;-68
2022/08/29 09:08:55;;;;;;;9.68;5.63;;;22.60;1.00;;;;;;7389336;19;20014;-67
2022/08/29 09:11:34;;;;;;;8.38;5.55;;;22.70;1.00;;;;;;7361100;19;20074;-68
2022/08/29 09:14:08;;;;;;;7.45;5.15;;;23.00;1.00;;;;;;7366781;19;20330;-67
2022/08/29 09:16:45;;;;;;;9.43;5.32;;;22.50;1.00;;;;;;7367226;19;20018;-68
2022/08/29 09:19:18;;;;;;;9.90;5.72;;;23.10;1.00;;;;;;7368739;19;20007;-68
2022/08/29 09:21:52;;;;;;;8.97;5.63;;;22.50;1.00;;;;;;7361049;19;20086;-68
2022/08/29 09:24:27;;;;;;;10.63;6.18;;;22.80;1.00;;;;;;7366972;19;20015;-68
2022/08/29 09:26:57;;;;;;;8.70;5.80;;;22.90;1.00;;;;;;7366899;19;20077;-68
2022/08/29 09:29:30;;;;;;;9.25;6.03;;;23.10;1.00;;;;;;7387760;19;20003;-68
2022/08/29 09:32:11;;;;;;;9.60;6.15;;;22.60;1.00;;;;;;7359523;19;20015;-67
2022/08/29 09:34:46;;;;;;;8.07;5.47;;;23.20;1.00;;;;;;7363293;19;20496;-67
2022/08/29 09:37:37;;;;;;;12.70;5.90;;;23.10;1.00;;;;;;7366805;19;20092;-68
2022/08/29 09:40:10;;;;;;;9.48;6.28;;;23.00;1.00;;;;;;7366392;19;20109;-68
2022/08/29 09:42:43;;;;;;;10.13;5.80;;;23.10;1.00;;;;;;7362865;19;20015;-68
2022/08/29 09:45:19;;;;;;;8.30;5.80;;;23.40;1.00;;;;;;7367011;19;20019;-68
2022/08/29 09:47:49;;;;;;;6.72;5.45;;;23.40;1.00;;;;;;7366143;19;20090;-68
2022/08/29 09:50:26;;;;;;;7.65;5.13;;;23.30;1.00;;;;;;7381862;19;20019;-68
2022/08/29 09:52:57;;;;;;;8.45;5.80;;;23.70;1.00;;;;;;7364149;19;20014;-69
2022/08/29 09:55:32;;;;;;;10.13;5.70;;;23.60;1.00;;;;;;7365195;19;20018;-68
2022/08/29 09:58:03;;;;;;;;;;;23.50;1.00;;;;;;7368328;19;20007;-68
2022/08/29 10:00:38;;;;;;;9.30;5.45;;;23.70;1.00;;;;;;7359168;19;21810;-68
2022/08/29 10:03:12;;;;;;;10.10;5.63;;;23.90;1.00;;;;;;7365073;19;20082;-68
2022/08/29 10:05:46;;;;;;;9.23;5.93;;;24.40;1.00;;;;;;7388629;19;20018;-67
2022/08/29 10:08:30;;;;;;;9.70;4.88;;;24.00;1.00;;;;;;7366831;19;20010;-69
2022/08/29 10:11:02;;;;;;;18.40;10.20;;;24.00;1.00;;;;;;7359013;19;20082;-68
2022/08/29 10:13:42;;;;;;;8.85;4.75;;;24.10;1.00;;;;;;7364533;19;20047;-68
2022/08/29 10:16:19;;;;;;;6.75;4.82;;;24.00;1.00;;;;;;7362128;19;20010;-68
2022/08/29 10:18:51;;;;;;;11.45;5.70;;;24.00;1.00;;;;;;7365779;19;20038;-68
2022/08/29 10:21:32;;;;;;;8.20;4.85;;;24.10;1.00;;;;;;7355942;19;20038;-68
2022/08/29 10:24:11;;;;;;;11.32;5.88;;;24.40;1.00;;;;;;7363526;19;20016;-68
2022/08/29 10:26:55;;;;;;;9.48;5.15;;;24.50;1.00;;;;;;7364520;19;20022;-69
2022/08/29 10:29:38;;;;;;;10.20;5.30;;;24.30;1.00;;;;;;7385723;19;20015;-69
2022/08/29 10:32:26;;;;;;;11.93;5.70;;;24.30;1.00;;;;;;7355821;19;20100;-68
2022/08/29 10:35:04;;;;;;;6.18;5.05;;;24.90;1.00;;;;;;7365578;19;20504;-68
2022/08/29 10:37:47;;;;;;;7.18;4.65;;;24.60;1.00;;;;;;7365816;19;20019;-68
2022/08/29 10:40:25;;;;;;;5.90;4.50;;;24.70;1.00;;;;;;7363371;19;20006;-68
2022/08/29 10:43:17;;;;;;;6.72;5.30;;;24.60;1.00;;;;;;7362807;19;20015;-68
2022/08/29 10:46:03;;;;;;;9.35;5.43;;;24.20;1.00;;;;;;7366912;19;20010;-67
2022/08/29 10:48:39;;;;;;;8.82;4.72;;;24.50;1.00;;;;;;7364663;19;20689;-67
2022/08/29 10:51:20;;;;;;;7.60;4.85;;;24.90;1.00;;;;;;7360549;19;20097;-68
2022/08/29 10:53:58;;;;;;;7.13;4.15;;;24.70;1.00;;;;;;7362394;19;20102;-68
2022/08/29 10:56:37;;;;;;;8.93;4.40;;;24.50;1.00;;;;;;7386964;19;20025;-68
2022/08/29 10:59:17;;;;;;;7.75;4.15;;;24.60;1.00;;;;;;7366534;19;20019;-67
2022/08/29 11:01:51;;;;;;;5.85;3.85;;;24.80;1.00;;;;;;7359083;19;20381;-68
2022/08/29 11:04:26;;;;;;;5.88;4.10;;;24.90;1.00;;;;;;7364617;19;20029;-68
2022/08/29 11:07:02;;;;;;;12.35;4.75;;;24.90;1.00;;;;;;7366716;19;20056;-69
2022/08/29 11:09:40;;;;;;;9.35;4.32;;;25.00;1.00;;;;;;7366974;19;20759;-68
2022/08/29 11:12:15;;;;;;;5.50;3.80;;;25.00;1.00;;;;;;7358345;19;20034;-68
2022/08/29 11:14:52;;;;;;;5.65;3.80;;;25.10;1.00;;;;;;7374732;19;20011;-68
2022/08/29 11:17:28;;;;;;;6.97;4.43;;;25.40;1.00;;;;;;7386467;19;20478;-69
2022/08/29 11:20:08;;;;;;;6.88;3.92;;;25.20;1.00;;;;;;7366537;19;20007;-70
2022/08/29 11:22:45;;;;;;;7.10;4.28;;;25.30;1.00;;;;;;7359256;19;20017;-68
2022/08/29 11:25:19;;;;;;;7.10;4.60;;;25.30;1.00;;;;;;7365921;19;20002;-69
2022/08/29 11:27:58;;;;;;;7.80;4.30;;;25.20;1.00;;;;;;7364658;19;20014;-68
2022/08/29 11:30:37;;;;;;;9.05;3.83;;;25.20;1.00;;;;;;7359494;19;20011;-68
2022/08/29 11:33:20;;;;;;;9.55;4.07;;;25.30;1.00;;;;;;7360400;19;20715;-68
2022/08/29 11:36:05;;;;;;;7.80;4.07;;;25.00;1.00;;;;;;7364905;19;20077;-68
2022/08/29 11:39:07;;;;;;;8.32;4.18;;;25.30;1.00;;;;;;7387898;19;20014;-67
2022/08/29 11:41:42;;;;;;;6.22;3.38;;;25.30;1.00;;;;;;7359524;19;20085;-68
2022/08/29 11:44:23;;;;;;;6.80;3.88;;;25.80;1.00;;;;;;7363160;19;20002;-68
2022/08/29 11:46:54;;;;;;;6.03;4.18;;;25.40;1.00;;;;;;7363592;19;20015;-68
2022/08/29 11:49:37;;;;;;;6.87;3.87;;;25.70;1.00;;;;;;7364881;19;20465;-68
2022/08/29 11:52:26;;;;;;;6.95;3.78;;;25.70;1.00;;;;;;7357570;19;20094;-67
2022/08/29 11:55:23;;;;;;;7.25;4.60;;;25.90;1.00;;;;;;7365386;19;20025;-68
2022/08/29 11:58:02;;;;;;;9.20;3.90;;;26.00;1.00;;;;;;7362060;19;20017;-67
2022/08/29 12:00:46;;;;;;;9.13;4.40;;;25.80;1.00;;;;;;7359374;19;20010;-68
2022/08/29 12:03:55;;;;;;;6.20;3.70;;;26.00;1.00;;;;;;7360810;19;20031;-68
2022/08/29 12:06:40;;;;;;;6.40;3.80;;;26.00;1.00;;;;;;7364155;19;20478;-68
2022/08/29 12:09:51;;;;;;;9.88;4.32;;;26.10;1.00;;;;;;7365877;19;20146;-67
2022/08/29 12:12:46;;;;;;;5.97;3.88;;;26.00;1.00;;;;;;7354290;19;20014;-68
2022/08/29 12:16:00;;;;;;;5.63;3.72;;;26.30;1.00;;;;;;7365414;19;20082;-68
2022/08/29 12:18:49;;;;;;;10.15;4.10;;;26.50;1.00;;;;;;7364884;19;20006;-68
2022/08/29 12:21:46;;;;;;;5.45;3.45;;;26.20;1.00;;;;;;7359544;19;20561;-68
2022/08/29 12:24:41;;;;;;;6.97;3.55;;;26.70;1.00;;;;;;7360934;19;20031;-68
2022/08/29 12:27:47;;;;;;;6.88;3.55;;;26.60;1.00;;;;;;7361548;19;20510;-67
2022/08/29 12:30:17;;;;;;;5.50;3.65;;;26.50;1.00;;;;;;7359807;19;20474;-67
2022/08/29 12:33:01;;;;;;;4.32;3.60;;;26.60;1.00;;;;;;7360643;19;20019;-70
2022/08/29 12:36:04;;;;;;;5.80;3.47;;;26.40;1.00;;;;;;7385547;19;20073;-68
2022/08/29 12:38:48;;;;;;;4.13;3.30;;;26.80;1.00;;;;;;7363142;19;20011;-68
2022/08/29 12:41:35;;;;;;;5.75;3.65;;;26.80;1.00;;;;;;7355726;19;20010;-67
2022/08/29 12:44:15;;;;;;;5.00;3.35;;;26.60;1.00;;;;;;7359653;19;20024;-68
2022/08/29 12:46:47;;;;;;;5.13;3.25;;;26.70;1.00;;;;;;7362893;19;20044;-69
2022/08/29 12:49:24;;;;;;;7.88;3.50;;;26.80;1.00;;;;;;7364792;19;20010;-68
2022/08/29 12:52:00;;;;;;;7.15;3.70;;;26.60;1.00;;;;;;7354572;19;20489;-68
2022/08/29 12:54:33;;;;;;;5.70;3.38;;;26.80;1.00;;;;;;7361996;19;20090;-67
2022/08/29 12:57:04;;;;;;;8.90;3.93;;;26.50;1.00;;;;;;7362872;19;20007;-69
2022/08/29 12:59:36;;;;;;;4.88;3.70;;;26.30;1.00;;;;;;7384978;19;20286;-69
2022/08/29 13:02:06;;;;;;;4.32;3.75;;;27.00;1.00;;;;;;7355049;19;20066;-69
2022/08/29 13:04:44;;;;;;;7.00;3.63;;;27.00;1.00;;;;;;7361054;19;20022;-68
2022/08/29 13:07:21;;;;;;;4.55;3.25;;;27.20;1.00;;;;;;7360830;19;20002;-69
2022/08/29 13:10:19;;;;;;;6.28;3.65;;;27.40;1.00;;;;;;7361796;19;20540;-71
2022/08/29 13:12:49;;;;;;;7.57;4.40;;;27.30;1.00;;;;;;7368113;19;20399;-69
2022/08/29 13:15:25;;;;;;;8.50;4.05;;;27.00;1.00;;;;;;7369716;19;20049;-69
2022/08/29 13:18:02;;;;;;;4.35;3.72;;;26.80;1.00;;;;;;7369421;19;20029;-68
2022/08/29 13:20:51;;;;;;;6.63;3.92;;;26.70;1.00;;;;;;7382841;19;20018;-68
2022/08/29 13:23:29;;;;;;;4.78;3.83;;;27.20;1.00;;;;;;7366519;19;20021;-69
2022/08/29 13:26:03;;;;;;;4.72;3.70;;;26.80;1.00;;;;;;7369305;19;20011;-68
2022/08/29 13:28:39;;;;;;;4.47;3.90;;;27.30;1.00;;;;;;7370660;19;20007;-69
2022/08/29 13:31:31;;;;;;;4.35;3.85;;;27.10;1.00;;;;;;7362983;19;20014;-69